sensor_id;sensor_type;location;lat;lon;timestamp;P1;durP1;ratioP1;P2;durP2;ratioP2
13343;SDS011;6741;48.964;9.406;2023-03-05T00:00:13;46.23;;;28.07;;
13343;SDS011;6741;48.964;9.406;2023-03-05T00:02:45;42.93;;;26.10;;
13343;SDS011;6741;48.964;9.406;2023-03-05T00:05:12;45.93;;;26.73;;
13343;SDS011;6741;48.964;9.406;2023-03-05T00:07:39;47.47;;;25.00;;
13343;SDS011;6741;48.964;9.406;2023-03-05T00:10:06;49.07;;;26.77;;
13343;SDS011;6741;48.964;9.406;2023-03-05T00:12:34;49.20;;;28.13;;
13343;SDS011;6741;48.964;9.406;2023-03-05T00:15:01;47.53;;;27.60;;
13343;SDS011;6741;48.964;9.406;2023-03-05T00:17:30;50.17;;;27.10;;
13343;SDS011;6741;48.964;9.406;2023-03-05T00:19:57;47.47;;;26.90;;
13343;SDS011;6741;48.964;9.406;2023-03-05T00:22:24;46.90;;;26.50;;
13343;SDS011;6741;48.964;9.406;2023-03-05T00:24:51;53.97;;;27.20;;
13343;SDS011;6741;48.964;9.406;2023-03-05T00:27:18;45.10;;;26.77;;
13343;SDS011;6741;48.964;9.406;2023-03-05T00:29:45;46.93;;;26.30;;
13343;SDS011;6741;48.964;9.406;2023-03-05T00:32:12;48.70;;;27.13;;
13343;SDS011;6741;48.964;9.406;2023-03-05T00:34:40;46.47;;;26.00;;
13343;SDS011;6741;48.964;9.406;2023-03-05T00:37:07;44.57;;;25.30;;
13343;SDS011;6741;48.964;9.406;2023-03-05T00:39:34;49.27;;;27.70;;
13343;SDS011;6741;48.964;9.406;2023-03-05T00:42:01;51.37;;;26.87;;
13343;SDS011;6741;48.964;9.406;2023-03-05T00:44:29;44.00;;;25.80;;
13343;SDS011;6741;48.964;9.406;2023-03-05T00:46:56;46.53;;;27.60;;
13343;SDS011;6741;48.964;9.406;2023-03-05T00:49:23;49.73;;;27.30;;
13343;SDS011;6741;48.964;9.406;2023-03-05T00:51:51;47.80;;;27.93;;
13343;SDS011;6741;48.964;9.406;2023-03-05T00:54:18;46.73;;;27.97;;
13343;SDS011;6741;48.964;9.406;2023-03-05T00:56:45;43.60;;;27.40;;
13343;SDS011;6741;48.964;9.406;2023-03-05T00:59:13;52.10;;;27.83;;
13343;SDS011;6741;48.964;9.406;2023-03-05T01:01:40;48.00;;;27.07;;
13343;SDS011;6741;48.964;9.406;2023-03-05T01:04:07;50.37;;;27.70;;
13343;SDS011;6741;48.964;9.406;2023-03-05T01:06:34;51.13;;;28.37;;
13343;SDS011;6741;48.964;9.406;2023-03-05T01:09:04;49.50;;;28.53;;
13343;SDS011;6741;48.964;9.406;2023-03-05T01:11:31;50.20;;;26.30;;
13343;SDS011;6741;48.964;9.406;2023-03-05T01:13:58;44.50;;;25.30;;
13343;SDS011;6741;48.964;9.406;2023-03-05T01:16:25;48.07;;;28.40;;
13343;SDS011;6741;48.964;9.406;2023-03-05T01:18:52;46.57;;;26.67;;
13343;SDS011;6741;48.964;9.406;2023-03-05T01:21:18;45.67;;;26.70;;
13343;SDS011;6741;48.964;9.406;2023-03-05T01:23:46;50.23;;;27.13;;
13343;SDS011;6741;48.964;9.406;2023-03-05T01:26:14;45.37;;;25.90;;
13343;SDS011;6741;48.964;9.406;2023-03-05T01:28:41;43.10;;;25.47;;
13343;SDS011;6741;48.964;9.406;2023-03-05T01:31:08;42.43;;;26.23;;
13343;SDS011;6741;48.964;9.406;2023-03-05T01:33:35;51.40;;;27.30;;
13343;SDS011;6741;48.964;9.406;2023-03-05T01:36:05;47.20;;;26.33;;
13343;SDS011;6741;48.964;9.406;2023-03-05T01:38:34;47.70;;;27.80;;
13343;SDS011;6741;48.964;9.406;2023-03-05T01:41:01;47.17;;;27.83;;
13343;SDS011;6741;48.964;9.406;2023-03-05T01:43:29;50.23;;;27.97;;
13343;SDS011;6741;48.964;9.406;2023-03-05T01:49:01;43.27;;;25.83;;
13343;SDS011;6741;48.964;9.406;2023-03-05T01:51:32;43.90;;;26.10;;
13343;SDS011;6741;48.964;9.406;2023-03-05T01:54:02;48.03;;;26.17;;
13343;SDS011;6741;48.964;9.406;2023-03-05T01:56:32;47.57;;;26.63;;
13343;SDS011;6741;48.964;9.406;2023-03-05T01:59:01;53.13;;;27.67;;
13343;SDS011;6741;48.964;9.406;2023-03-05T02:01:29;49.03;;;26.87;;
13343;SDS011;6741;48.964;9.406;2023-03-05T02:03:58;44.90;;;25.80;;
13343;SDS011;6741;48.964;9.406;2023-03-05T02:06:26;45.30;;;24.87;;
13343;SDS011;6741;48.964;9.406;2023-03-05T02:08:53;52.23;;;28.17;;
13343;SDS011;6741;48.964;9.406;2023-03-05T02:11:20;44.03;;;24.70;;
13343;SDS011;6741;48.964;9.406;2023-03-05T02:13:47;50.97;;;28.90;;
13343;SDS011;6741;48.964;9.406;2023-03-05T02:16:15;46.13;;;27.93;;
13343;SDS011;6741;48.964;9.406;2023-03-05T02:18:42;48.17;;;26.70;;
13343;SDS011;6741;48.964;9.406;2023-03-05T02:21:10;51.83;;;28.10;;
13343;SDS011;6741;48.964;9.406;2023-03-05T02:23:38;50.93;;;27.37;;
13343;SDS011;6741;48.964;9.406;2023-03-05T02:26:06;48.37;;;28.27;;
13343;SDS011;6741;48.964;9.406;2023-03-05T02:28:37;48.33;;;27.33;;
13343;SDS011;6741;48.964;9.406;2023-03-05T02:31:10;47.33;;;27.63;;
13343;SDS011;6741;48.964;9.406;2023-03-05T02:33:40;49.77;;;27.20;;
13343;SDS011;6741;48.964;9.406;2023-03-05T02:36:07;51.13;;;28.43;;
13343;SDS011;6741;48.964;9.406;2023-03-05T02:38:37;47.07;;;28.40;;
13343;SDS011;6741;48.964;9.406;2023-03-05T02:41:04;50.17;;;28.07;;
13343;SDS011;6741;48.964;9.406;2023-03-05T02:43:31;48.93;;;28.33;;
13343;SDS011;6741;48.964;9.406;2023-03-05T02:45:58;48.17;;;27.63;;
13343;SDS011;6741;48.964;9.406;2023-03-05T02:48:25;50.10;;;29.53;;
13343;SDS011;6741;48.964;9.406;2023-03-05T02:50:52;52.47;;;27.30;;
13343;SDS011;6741;48.964;9.406;2023-03-05T02:53:20;49.23;;;28.10;;
13343;SDS011;6741;48.964;9.406;2023-03-05T02:55:49;46.27;;;27.07;;
13343;SDS011;6741;48.964;9.406;2023-03-05T02:58:16;55.77;;;29.47;;
13343;SDS011;6741;48.964;9.406;2023-03-05T03:00:43;49.73;;;28.93;;
13343;SDS011;6741;48.964;9.406;2023-03-05T03:03:11;52.33;;;29.43;;
13343;SDS011;6741;48.964;9.406;2023-03-05T03:05:38;47.60;;;28.40;;
13343;SDS011;6741;48.964;9.406;2023-03-05T03:08:05;48.90;;;28.53;;
13343;SDS011;6741;48.964;9.406;2023-03-05T03:10:32;56.23;;;28.83;;
13343;SDS011;6741;48.964;9.406;2023-03-05T03:13:01;43.77;;;27.37;;
13343;SDS011;6741;48.964;9.406;2023-03-05T03:15:28;47.97;;;28.60;;
13343;SDS011;6741;48.964;9.406;2023-03-05T03:17:55;51.47;;;28.10;;
13343;SDS011;6741;48.964;9.406;2023-03-05T03:20:22;43.63;;;26.57;;
13343;SDS011;6741;48.964;9.406;2023-03-05T03:22:49;55.30;;;27.93;;
13343;SDS011;6741;48.964;9.406;2023-03-05T03:25:17;46.90;;;27.70;;
13343;SDS011;6741;48.964;9.406;2023-03-05T03:27:45;48.17;;;27.70;;
13343;SDS011;6741;48.964;9.406;2023-03-05T03:30:14;48.60;;;27.60;;
13343;SDS011;6741;48.964;9.406;2023-03-05T03:32:41;50.47;;;27.23;;
13343;SDS011;6741;48.964;9.406;2023-03-05T03:35:09;51.47;;;28.33;;
13343;SDS011;6741;48.964;9.406;2023-03-05T03:37:37;50.70;;;28.77;;
13343;SDS011;6741;48.964;9.406;2023-03-05T03:40:05;51.20;;;27.60;;
13343;SDS011;6741;48.964;9.406;2023-03-05T03:42:32;44.63;;;25.70;;
13343;SDS011;6741;48.964;9.406;2023-03-05T03:44:59;50.07;;;27.50;;
13343;SDS011;6741;48.964;9.406;2023-03-05T03:47:28;47.13;;;27.30;;
13343;SDS011;6741;48.964;9.406;2023-03-05T03:49:56;51.97;;;27.60;;
13343;SDS011;6741;48.964;9.406;2023-03-05T03:52:23;47.40;;;27.33;;
13343;SDS011;6741;48.964;9.406;2023-03-05T03:54:51;53.10;;;28.50;;
13343;SDS011;6741;48.964;9.406;2023-03-05T03:57:19;44.80;;;24.90;;
13343;SDS011;6741;48.964;9.406;2023-03-05T03:59:46;47.23;;;27.47;;
13343;SDS011;6741;48.964;9.406;2023-03-05T04:02:14;50.47;;;28.30;;
13343;SDS011;6741;48.964;9.406;2023-03-05T04:04:42;49.33;;;26.27;;
13343;SDS011;6741;48.964;9.406;2023-03-05T04:07:09;45.57;;;25.80;;
13343;SDS011;6741;48.964;9.406;2023-03-05T04:09:36;46.47;;;26.33;;
13343;SDS011;6741;48.964;9.406;2023-03-05T04:12:04;47.17;;;27.83;;
13343;SDS011;6741;48.964;9.406;2023-03-05T04:14:31;50.17;;;25.77;;
13343;SDS011;6741;48.964;9.406;2023-03-05T04:16:58;46.63;;;26.73;;
13343;SDS011;6741;48.964;9.406;2023-03-05T04:19:25;48.23;;;27.00;;
13343;SDS011;6741;48.964;9.406;2023-03-05T04:21:53;43.20;;;24.93;;
13343;SDS011;6741;48.964;9.406;2023-03-05T04:24:20;47.80;;;26.47;;
13343;SDS011;6741;48.964;9.406;2023-03-05T04:26:47;50.23;;;26.37;;
13343;SDS011;6741;48.964;9.406;2023-03-05T04:29:14;48.17;;;26.90;;
13343;SDS011;6741;48.964;9.406;2023-03-05T04:31:41;45.37;;;26.57;;
13343;SDS011;6741;48.964;9.406;2023-03-05T04:34:08;47.20;;;27.07;;
13343;SDS011;6741;48.964;9.406;2023-03-05T04:36:35;54.57;;;26.80;;
13343;SDS011;6741;48.964;9.406;2023-03-05T04:39:03;48.60;;;26.13;;
13343;SDS011;6741;48.964;9.406;2023-03-05T04:41:30;50.70;;;27.97;;
13343;SDS011;6741;48.964;9.406;2023-03-05T04:43:57;49.30;;;25.70;;
13343;SDS011;6741;48.964;9.406;2023-03-05T04:46:24;47.80;;;26.33;;
13343;SDS011;6741;48.964;9.406;2023-03-05T04:48:51;44.53;;;24.60;;
13343;SDS011;6741;48.964;9.406;2023-03-05T04:51:18;44.90;;;25.83;;
13343;SDS011;6741;48.964;9.406;2023-03-05T04:53:44;45.03;;;25.47;;
13343;SDS011;6741;48.964;9.406;2023-03-05T04:56:13;49.80;;;26.93;;
13343;SDS011;6741;48.964;9.406;2023-03-05T04:58:40;48.80;;;25.77;;
13343;SDS011;6741;48.964;9.406;2023-03-05T05:01:07;44.60;;;24.83;;
13343;SDS011;6741;48.964;9.406;2023-03-05T05:03:34;45.60;;;24.43;;
13343;SDS011;6741;48.964;9.406;2023-03-05T05:06:01;44.67;;;25.37;;
13343;SDS011;6741;48.964;9.406;2023-03-05T05:08:28;47.80;;;25.80;;
13343;SDS011;6741;48.964;9.406;2023-03-05T05:10:56;39.63;;;24.33;;
13343;SDS011;6741;48.964;9.406;2023-03-05T05:13:25;45.17;;;24.70;;
13343;SDS011;6741;48.964;9.406;2023-03-05T05:15:53;43.73;;;24.07;;
13343;SDS011;6741;48.964;9.406;2023-03-05T05:18:20;44.53;;;25.20;;
13343;SDS011;6741;48.964;9.406;2023-03-05T05:20:47;47.50;;;25.30;;
13343;SDS011;6741;48.964;9.406;2023-03-05T05:23:14;47.03;;;25.80;;
13343;SDS011;6741;48.964;9.406;2023-03-05T05:25:42;46.27;;;25.47;;
13343;SDS011;6741;48.964;9.406;2023-03-05T05:28:09;47.07;;;24.03;;
13343;SDS011;6741;48.964;9.406;2023-03-05T05:30:38;45.17;;;24.83;;
13343;SDS011;6741;48.964;9.406;2023-03-05T05:33:05;47.40;;;25.33;;
13343;SDS011;6741;48.964;9.406;2023-03-05T05:35:32;42.13;;;23.93;;
13343;SDS011;6741;48.964;9.406;2023-03-05T05:37:59;49.03;;;26.43;;
13343;SDS011;6741;48.964;9.406;2023-03-05T05:40:25;41.53;;;24.10;;
13343;SDS011;6741;48.964;9.406;2023-03-05T05:42:52;42.87;;;25.50;;
13343;SDS011;6741;48.964;9.406;2023-03-05T05:45:19;46.13;;;26.00;;
13343;SDS011;6741;48.964;9.406;2023-03-05T05:47:48;49.13;;;25.70;;
13343;SDS011;6741;48.964;9.406;2023-03-05T05:50:15;48.50;;;25.73;;
13343;SDS011;6741;48.964;9.406;2023-03-05T05:52:41;45.50;;;25.73;;
13343;SDS011;6741;48.964;9.406;2023-03-05T05:55:09;49.50;;;26.30;;
13343;SDS011;6741;48.964;9.406;2023-03-05T05:57:36;48.07;;;26.40;;
13343;SDS011;6741;48.964;9.406;2023-03-05T06:00:04;46.03;;;26.30;;
13343;SDS011;6741;48.964;9.406;2023-03-05T06:02:36;43.77;;;25.60;;
13343;SDS011;6741;48.964;9.406;2023-03-05T06:05:05;46.93;;;26.77;;
13343;SDS011;6741;48.964;9.406;2023-03-05T06:07:34;45.93;;;26.20;;
13343;SDS011;6741;48.964;9.406;2023-03-05T06:10:01;44.30;;;26.07;;
13343;SDS011;6741;48.964;9.406;2023-03-05T06:12:28;45.47;;;25.50;;
13343;SDS011;6741;48.964;9.406;2023-03-05T06:14:55;53.30;;;25.90;;
13343;SDS011;6741;48.964;9.406;2023-03-05T06:17:23;51.50;;;26.27;;
13343;SDS011;6741;48.964;9.406;2023-03-05T06:19:52;48.97;;;26.43;;
13343;SDS011;6741;48.964;9.406;2023-03-05T06:22:21;46.33;;;24.73;;
13343;SDS011;6741;48.964;9.406;2023-03-05T06:24:48;48.20;;;25.20;;
13343;SDS011;6741;48.964;9.406;2023-03-05T06:27:14;48.60;;;26.20;;
13343;SDS011;6741;48.964;9.406;2023-03-05T06:29:41;50.30;;;26.03;;
13343;SDS011;6741;48.964;9.406;2023-03-05T06:32:08;48.60;;;25.87;;
13343;SDS011;6741;48.964;9.406;2023-03-05T06:34:35;46.23;;;26.00;;
13343;SDS011;6741;48.964;9.406;2023-03-05T06:37:02;55.83;;;26.37;;
13343;SDS011;6741;48.964;9.406;2023-03-05T06:39:30;50.70;;;25.43;;
13343;SDS011;6741;48.964;9.406;2023-03-05T06:41:57;45.37;;;24.30;;
13343;SDS011;6741;48.964;9.406;2023-03-05T06:44:24;43.93;;;25.70;;
13343;SDS011;6741;48.964;9.406;2023-03-05T06:46:51;42.23;;;25.50;;
13343;SDS011;6741;48.964;9.406;2023-03-05T06:49:18;43.60;;;25.07;;
13343;SDS011;6741;48.964;9.406;2023-03-05T06:51:45;47.30;;;25.90;;
13343;SDS011;6741;48.964;9.406;2023-03-05T06:54:13;48.57;;;26.90;;
13343;SDS011;6741;48.964;9.406;2023-03-05T06:56:42;46.90;;;25.87;;
13343;SDS011;6741;48.964;9.406;2023-03-05T06:59:11;48.63;;;24.97;;
13343;SDS011;6741;48.964;9.406;2023-03-05T07:01:39;49.27;;;26.47;;
13343;SDS011;6741;48.964;9.406;2023-03-05T07:04:07;43.50;;;26.10;;
13343;SDS011;6741;48.964;9.406;2023-03-05T07:06:35;47.90;;;26.43;;
13343;SDS011;6741;48.964;9.406;2023-03-05T07:09:03;41.37;;;25.33;;
13343;SDS011;6741;48.964;9.406;2023-03-05T07:11:32;46.20;;;25.73;;
13343;SDS011;6741;48.964;9.406;2023-03-05T07:14:00;53.47;;;25.87;;
13343;SDS011;6741;48.964;9.406;2023-03-05T07:16:29;54.10;;;25.93;;
13343;SDS011;6741;48.964;9.406;2023-03-05T07:18:57;47.93;;;25.50;;
13343;SDS011;6741;48.964;9.406;2023-03-05T07:21:27;51.30;;;25.60;;
13343;SDS011;6741;48.964;9.406;2023-03-05T07:23:57;50.77;;;26.63;;
13343;SDS011;6741;48.964;9.406;2023-03-05T07:26:25;50.67;;;24.67;;
13343;SDS011;6741;48.964;9.406;2023-03-05T07:28:52;45.23;;;26.33;;
13343;SDS011;6741;48.964;9.406;2023-03-05T07:31:21;45.60;;;23.80;;
13343;SDS011;6741;48.964;9.406;2023-03-05T07:33:51;48.73;;;24.23;;
13343;SDS011;6741;48.964;9.406;2023-03-05T07:36:18;46.53;;;24.50;;
13343;SDS011;6741;48.964;9.406;2023-03-05T07:38:45;45.90;;;24.27;;
13343;SDS011;6741;48.964;9.406;2023-03-05T07:41:14;43.53;;;25.97;;
13343;SDS011;6741;48.964;9.406;2023-03-05T07:43:44;41.97;;;23.80;;
13343;SDS011;6741;48.964;9.406;2023-03-05T07:46:11;46.00;;;24.77;;
13343;SDS011;6741;48.964;9.406;2023-03-05T07:48:41;40.93;;;24.03;;
13343;SDS011;6741;48.964;9.406;2023-03-05T07:51:10;44.77;;;24.03;;
13343;SDS011;6741;48.964;9.406;2023-03-05T07:53:40;42.50;;;24.40;;
13343;SDS011;6741;48.964;9.406;2023-03-05T07:56:07;38.37;;;21.93;;
13343;SDS011;6741;48.964;9.406;2023-03-05T07:58:36;44.50;;;23.27;;
13343;SDS011;6741;48.964;9.406;2023-03-05T08:01:09;43.50;;;24.00;;
13343;SDS011;6741;48.964;9.406;2023-03-05T08:03:38;44.07;;;24.13;;
13343;SDS011;6741;48.964;9.406;2023-03-05T08:06:07;38.80;;;22.23;;
13343;SDS011;6741;48.964;9.406;2023-03-05T08:08:35;40.67;;;24.27;;
13343;SDS011;6741;48.964;9.406;2023-03-05T08:11:03;42.27;;;21.50;;
13343;SDS011;6741;48.964;9.406;2023-03-05T08:13:30;37.23;;;22.30;;
13343;SDS011;6741;48.964;9.406;2023-03-05T08:15:57;39.33;;;22.93;;
13343;SDS011;6741;48.964;9.406;2023-03-05T08:18:24;41.67;;;22.10;;
13343;SDS011;6741;48.964;9.406;2023-03-05T08:20:51;35.23;;;21.30;;
13343;SDS011;6741;48.964;9.406;2023-03-05T08:23:20;38.27;;;21.40;;
13343;SDS011;6741;48.964;9.406;2023-03-05T08:25:47;40.30;;;20.63;;
13343;SDS011;6741;48.964;9.406;2023-03-05T08:28:13;37.80;;;18.23;;
13343;SDS011;6741;48.964;9.406;2023-03-05T08:30:43;33.67;;;19.87;;
13343;SDS011;6741;48.964;9.406;2023-03-05T08:33:11;32.57;;;19.23;;
13343;SDS011;6741;48.964;9.406;2023-03-05T08:35:39;36.60;;;18.43;;
13343;SDS011;6741;48.964;9.406;2023-03-05T08:38:06;36.80;;;19.50;;
13343;SDS011;6741;48.964;9.406;2023-03-05T08:40:34;36.03;;;17.90;;
13343;SDS011;6741;48.964;9.406;2023-03-05T08:43:01;31.73;;;17.83;;
13343;SDS011;6741;48.964;9.406;2023-03-05T08:45:29;35.67;;;18.07;;
13343;SDS011;6741;48.964;9.406;2023-03-05T08:47:56;31.33;;;17.47;;
13343;SDS011;6741;48.964;9.406;2023-03-05T08:50:23;33.10;;;17.93;;
13343;SDS011;6741;48.964;9.406;2023-03-05T08:52:50;30.27;;;18.37;;
13343;SDS011;6741;48.964;9.406;2023-03-05T08:55:17;32.43;;;17.57;;
13343;SDS011;6741;48.964;9.406;2023-03-05T08:57:45;33.63;;;17.77;;
13343;SDS011;6741;48.964;9.406;2023-03-05T09:00:12;36.80;;;18.53;;
13343;SDS011;6741;48.964;9.406;2023-03-05T09:02:40;35.50;;;16.87;;
13343;SDS011;6741;48.964;9.406;2023-03-05T09:05:07;31.63;;;16.60;;
13343;SDS011;6741;48.964;9.406;2023-03-05T09:07:35;32.77;;;16.87;;
13343;SDS011;6741;48.964;9.406;2023-03-05T09:10:12;29.53;;;15.23;;
13343;SDS011;6741;48.964;9.406;2023-03-05T09:12:42;27.13;;;15.27;;
13343;SDS011;6741;48.964;9.406;2023-03-05T09:15:11;34.37;;;17.17;;
13343;SDS011;6741;48.964;9.406;2023-03-05T09:17:38;35.70;;;18.60;;
13343;SDS011;6741;48.964;9.406;2023-03-05T09:20:07;35.30;;;18.03;;
13343;SDS011;6741;48.964;9.406;2023-03-05T09:22:36;33.20;;;16.90;;
13343;SDS011;6741;48.964;9.406;2023-03-05T09:25:04;32.63;;;16.80;;
13343;SDS011;6741;48.964;9.406;2023-03-05T09:27:32;33.77;;;16.73;;
13343;SDS011;6741;48.964;9.406;2023-03-05T09:29:59;37.97;;;18.97;;
13343;SDS011;6741;48.964;9.406;2023-03-05T09:32:27;34.47;;;19.60;;
13343;SDS011;6741;48.964;9.406;2023-03-05T09:34:54;38.77;;;19.80;;
13343;SDS011;6741;48.964;9.406;2023-03-05T09:37:23;37.00;;;18.60;;
13343;SDS011;6741;48.964;9.406;2023-03-05T09:39:50;38.27;;;18.70;;
13343;SDS011;6741;48.964;9.406;2023-03-05T09:42:26;36.27;;;19.90;;
13343;SDS011;6741;48.964;9.406;2023-03-05T09:45:02;34.20;;;17.27;;
13343;SDS011;6741;48.964;9.406;2023-03-05T09:47:45;36.10;;;18.50;;
13343;SDS011;6741;48.964;9.406;2023-03-05T09:50:22;30.00;;;16.77;;
13343;SDS011;6741;48.964;9.406;2023-03-05T09:53:00;32.33;;;18.00;;
13343;SDS011;6741;48.964;9.406;2023-03-05T09:55:32;30.97;;;16.67;;
13343;SDS011;6741;48.964;9.406;2023-03-05T09:58:05;29.47;;;17.00;;
13343;SDS011;6741;48.964;9.406;2023-03-05T10:00:38;27.60;;;16.00;;
13343;SDS011;6741;48.964;9.406;2023-03-05T10:03:11;29.37;;;15.10;;
13343;SDS011;6741;48.964;9.406;2023-03-05T10:05:52;25.10;;;14.77;;
13343;SDS011;6741;48.964;9.406;2023-03-05T10:08:32;28.17;;;16.40;;
13343;SDS011;6741;48.964;9.406;2023-03-05T10:11:15;31.10;;;15.43;;
13343;SDS011;6741;48.964;9.406;2023-03-05T10:13:54;27.27;;;15.60;;
13343;SDS011;6741;48.964;9.406;2023-03-05T10:16:30;29.73;;;15.83;;
13343;SDS011;6741;48.964;9.406;2023-03-05T10:19:19;33.73;;;15.60;;
13343;SDS011;6741;48.964;9.406;2023-03-05T10:22:03;31.27;;;16.03;;
13343;SDS011;6741;48.964;9.406;2023-03-05T10:24:40;29.93;;;15.80;;
13343;SDS011;6741;48.964;9.406;2023-03-05T10:27:18;29.57;;;16.20;;
13343;SDS011;6741;48.964;9.406;2023-03-05T10:29:54;28.70;;;16.70;;
13343;SDS011;6741;48.964;9.406;2023-03-05T10:32:35;29.73;;;17.00;;
13343;SDS011;6741;48.964;9.406;2023-03-05T10:35:16;34.20;;;16.33;;
13343;SDS011;6741;48.964;9.406;2023-03-05T10:38:04;34.27;;;17.37;;
13343;SDS011;6741;48.964;9.406;2023-03-05T10:40:46;42.97;;;24.23;;
13343;SDS011;6741;48.964;9.406;2023-03-05T10:43:19;39.10;;;22.50;;
13343;SDS011;6741;48.964;9.406;2023-03-05T10:45:53;34.60;;;21.17;;
13343;SDS011;6741;48.964;9.406;2023-03-05T10:48:25;36.10;;;20.67;;
13343;SDS011;6741;48.964;9.406;2023-03-05T10:50:58;36.00;;;21.33;;
13343;SDS011;6741;48.964;9.406;2023-03-05T10:53:28;37.37;;;21.43;;
13343;SDS011;6741;48.964;9.406;2023-03-05T10:56:00;43.13;;;23.13;;
13343;SDS011;6741;48.964;9.406;2023-03-05T10:58:28;40.43;;;23.03;;
13343;SDS011;6741;48.964;9.406;2023-03-05T11:01:00;36.87;;;21.93;;
13343;SDS011;6741;48.964;9.406;2023-03-05T11:03:46;42.83;;;24.93;;
13343;SDS011;6741;48.964;9.406;2023-03-05T11:06:21;39.63;;;23.30;;
13343;SDS011;6741;48.964;9.406;2023-03-05T11:08:53;34.50;;;19.80;;
13343;SDS011;6741;48.964;9.406;2023-03-05T11:11:21;37.10;;;21.60;;
13343;SDS011;6741;48.964;9.406;2023-03-05T11:13:50;41.57;;;26.70;;
13343;SDS011;6741;48.964;9.406;2023-03-05T11:16:20;36.13;;;22.10;;
13343;SDS011;6741;48.964;9.406;2023-03-05T11:18:49;31.37;;;19.77;;
13343;SDS011;6741;48.964;9.406;2023-03-05T11:21:20;30.67;;;18.10;;
13343;SDS011;6741;48.964;9.406;2023-03-05T11:24:05;32.43;;;18.67;;
13343;SDS011;6741;48.964;9.406;2023-03-05T11:26:37;29.93;;;17.30;;
13343;SDS011;6741;48.964;9.406;2023-03-05T11:29:16;32.20;;;17.73;;
13343;SDS011;6741;48.964;9.406;2023-03-05T11:31:48;29.57;;;17.53;;
13343;SDS011;6741;48.964;9.406;2023-03-05T11:34:24;35.07;;;18.33;;
13343;SDS011;6741;48.964;9.406;2023-03-05T11:37:01;30.40;;;17.17;;
13343;SDS011;6741;48.964;9.406;2023-03-05T11:39:30;30.33;;;17.43;;
13343;SDS011;6741;48.964;9.406;2023-03-05T11:42:00;33.17;;;19.97;;
13343;SDS011;6741;48.964;9.406;2023-03-05T11:44:31;36.00;;;21.40;;
13343;SDS011;6741;48.964;9.406;2023-03-05T11:47:01;40.30;;;23.53;;
13343;SDS011;6741;48.964;9.406;2023-03-05T11:49:34;35.57;;;21.07;;
13343;SDS011;6741;48.964;9.406;2023-03-05T11:52:11;31.87;;;17.90;;
13343;SDS011;6741;48.964;9.406;2023-03-05T11:54:46;32.03;;;18.70;;
13343;SDS011;6741;48.964;9.406;2023-03-05T11:57:19;31.93;;;17.53;;
13343;SDS011;6741;48.964;9.406;2023-03-05T11:59:49;33.10;;;18.90;;
13343;SDS011;6741;48.964;9.406;2023-03-05T12:02:18;28.10;;;18.07;;
13343;SDS011;6741;48.964;9.406;2023-03-05T12:04:47;35.23;;;23.40;;
13343;SDS011;6741;48.964;9.406;2023-03-05T12:07:17;34.83;;;24.43;;
13343;SDS011;6741;48.964;9.406;2023-03-05T12:09:48;37.93;;;22.13;;
13343;SDS011;6741;48.964;9.406;2023-03-05T12:12:21;31.17;;;18.83;;
13343;SDS011;6741;48.964;9.406;2023-03-05T12:15:00;33.00;;;19.60;;
13343;SDS011;6741;48.964;9.406;2023-03-05T12:17:44;30.67;;;18.10;;
13343;SDS011;6741;48.964;9.406;2023-03-05T12:20:20;29.27;;;18.40;;
13343;SDS011;6741;48.964;9.406;2023-03-05T12:22:58;24.13;;;15.80;;
13343;SDS011;6741;48.964;9.406;2023-03-05T12:25:27;29.27;;;16.57;;
13343;SDS011;6741;48.964;9.406;2023-03-05T12:27:57;25.63;;;16.77;;
13343;SDS011;6741;48.964;9.406;2023-03-05T12:30:32;24.43;;;15.67;;
13343;SDS011;6741;48.964;9.406;2023-03-05T12:33:34;31.87;;;16.00;;
13343;SDS011;6741;48.964;9.406;2023-03-05T12:45:23;23.93;;;14.57;;
13343;SDS011;6741;48.964;9.406;2023-03-05T12:50:56;26.90;;;15.07;;
13343;SDS011;6741;48.964;9.406;2023-03-05T12:53:24;27.17;;;15.23;;
13343;SDS011;6741;48.964;9.406;2023-03-05T12:55:57;22.90;;;15.03;;
13343;SDS011;6741;48.964;9.406;2023-03-05T12:58:32;25.17;;;15.93;;
13343;SDS011;6741;48.964;9.406;2023-03-05T13:01:05;28.67;;;15.93;;
13343;SDS011;6741;48.964;9.406;2023-03-05T13:03:42;28.30;;;16.73;;
13343;SDS011;6741;48.964;9.406;2023-03-05T13:06:22;28.00;;;15.23;;
13343;SDS011;6741;48.964;9.406;2023-03-05T13:08:54;24.53;;;15.30;;
13343;SDS011;6741;48.964;9.406;2023-03-05T13:11:26;27.37;;;15.83;;
13343;SDS011;6741;48.964;9.406;2023-03-05T13:13:55;28.53;;;15.33;;
13343;SDS011;6741;48.964;9.406;2023-03-05T13:16:22;22.47;;;15.30;;
13343;SDS011;6741;48.964;9.406;2023-03-05T13:18:53;37.80;;;25.20;;
13343;SDS011;6741;48.964;9.406;2023-03-05T13:21:23;31.90;;;17.50;;
13343;SDS011;6741;48.964;9.406;2023-03-05T13:23:52;26.90;;;15.20;;
13343;SDS011;6741;48.964;9.406;2023-03-05T13:26:23;25.30;;;14.80;;
13343;SDS011;6741;48.964;9.406;2023-03-05T13:29:09;26.07;;;15.03;;
13343;SDS011;6741;48.964;9.406;2023-03-05T13:31:40;23.20;;;13.97;;
13343;SDS011;6741;48.964;9.406;2023-03-05T13:34:15;20.53;;;13.27;;
13343;SDS011;6741;48.964;9.406;2023-03-05T13:36:45;25.77;;;14.83;;
13343;SDS011;6741;48.964;9.406;2023-03-05T13:39:19;26.67;;;15.80;;
13343;SDS011;6741;48.964;9.406;2023-03-05T13:42:01;22.37;;;12.93;;
13343;SDS011;6741;48.964;9.406;2023-03-05T13:44:31;22.33;;;14.67;;
13343;SDS011;6741;48.964;9.406;2023-03-05T13:47:06;20.83;;;13.50;;
13343;SDS011;6741;48.964;9.406;2023-03-05T13:49:35;23.07;;;14.23;;
13343;SDS011;6741;48.964;9.406;2023-03-05T13:52:02;19.33;;;12.50;;
13343;SDS011;6741;48.964;9.406;2023-03-05T13:54:30;19.30;;;12.60;;
13343;SDS011;6741;48.964;9.406;2023-03-05T13:56:58;20.33;;;12.13;;
13343;SDS011;6741;48.964;9.406;2023-03-05T13:59:26;20.13;;;11.90;;
13343;SDS011;6741;48.964;9.406;2023-03-05T14:01:57;24.70;;;14.53;;
13343;SDS011;6741;48.964;9.406;2023-03-05T14:04:25;24.43;;;13.90;;
13343;SDS011;6741;48.964;9.406;2023-03-05T14:06:55;24.07;;;13.37;;
13343;SDS011;6741;48.964;9.406;2023-03-05T14:09:24;22.83;;;12.90;;
13343;SDS011;6741;48.964;9.406;2023-03-05T14:11:54;19.23;;;13.20;;
13343;SDS011;6741;48.964;9.406;2023-03-05T14:14:23;21.50;;;15.30;;
13343;SDS011;6741;48.964;9.406;2023-03-05T14:16:51;26.70;;;15.03;;
13343;SDS011;6741;48.964;9.406;2023-03-05T14:19:35;22.70;;;14.53;;
13343;SDS011;6741;48.964;9.406;2023-03-05T14:22:05;20.00;;;13.57;;
13343;SDS011;6741;48.964;9.406;2023-03-05T14:24:32;21.60;;;14.27;;
13343;SDS011;6741;48.964;9.406;2023-03-05T14:26:59;19.90;;;13.23;;
13343;SDS011;6741;48.964;9.406;2023-03-05T14:29:29;17.17;;;10.97;;
13343;SDS011;6741;48.964;9.406;2023-03-05T14:31:58;19.63;;;12.03;;
13343;SDS011;6741;48.964;9.406;2023-03-05T14:34:28;19.03;;;12.53;;
13343;SDS011;6741;48.964;9.406;2023-03-05T14:36:59;17.00;;;12.70;;
13343;SDS011;6741;48.964;9.406;2023-03-05T14:39:30;18.30;;;12.20;;
13343;SDS011;6741;48.964;9.406;2023-03-05T14:42:13;21.20;;;12.27;;
13343;SDS011;6741;48.964;9.406;2023-03-05T14:44:51;22.17;;;12.07;;
13343;SDS011;6741;48.964;9.406;2023-03-05T14:47:19;24.27;;;12.83;;
13343;SDS011;6741;48.964;9.406;2023-03-05T14:49:46;22.03;;;13.20;;
13343;SDS011;6741;48.964;9.406;2023-03-05T14:52:15;19.07;;;12.17;;
13343;SDS011;6741;48.964;9.406;2023-03-05T14:54:43;22.77;;;13.00;;
13343;SDS011;6741;48.964;9.406;2023-03-05T14:57:12;20.77;;;12.87;;
13343;SDS011;6741;48.964;9.406;2023-03-05T14:59:41;22.10;;;13.30;;
13343;SDS011;6741;48.964;9.406;2023-03-05T15:02:11;23.70;;;13.10;;